Time;durP1;ratioP1;P1;durP2;ratioP2;P2;SDS_P1;SDS_P2;PMS_P1;PMS_P2;Temp;Humidity;BMP_temperature;BMP_pressure;BME280_temperature;BME280_humidity;BME280_pressure;Samples;Min_cycle;Max_cycle;Signal;HPM_P1;HPM_P2
2021/10/02 09:29:03;;;;;;;10.00;2.80;;;16.90;99.90;;;;;;14712384;22;2176220;-71
2021/10/02 09:34:52;;;;;;;9.63;3.15;;;17.00;99.90;;;;;;14535987;23;20074;-69
2021/10/02 09:40:40;;;;;;;12.52;2.92;;;17.10;99.90;;;;;;14590546;23;20029;-71
2021/10/02 09:53:12;;;;;;;9.68;2.67;;;17.50;99.90;;;;;;14588453;23;20026;-69
2021/10/02 09:58:59;;;;;;;9.65;2.03;;;17.70;99.90;;;;;;14639462;23;20053;-69
2021/10/02 10:05:16;;;;;;;10.57;1.90;;;17.70;99.90;;;;;;14619654;22;20104;-69
2021/10/02 10:11:23;;;;;;;10.48;2.50;;;17.90;99.90;;;;;;14635785;22;20706;-69
2021/10/02 10:17:20;;;;;;;10.25;2.20;;;17.60;99.90;;;;;;14639606;23;20057;-69
2021/10/02 10:23:08;;;;;;;17.33;2.53;;;17.70;99.90;;;;;;14549398;22;20126;-70
2021/10/02 10:29:10;;;;;;;12.57;2.17;;;17.90;99.90;;;;;;14551369;22;20029;-69
2021/10/02 10:35:00;;;;;;;6.05;1.60;;;18.00;99.90;;;;;;14567403;23;20058;-70
2021/10/02 10:40:48;;;;;;;9.70;2.22;;;17.90;99.90;;;;;;14523939;23;20054;-69
2021/10/02 10:46:37;;;;;;;8.65;1.98;;;18.00;99.90;;;;;;14504272;23;20022;-70
2021/10/02 10:52:25;;;;;;;14.25;2.75;;;18.10;99.90;;;;;;14579919;23;20037;-69
2021/10/02 10:58:22;;;;;;;9.05;2.10;;;18.20;99.90;;;;;;14517063;23;20110;-69
2021/10/02 11:04:39;;;;;;;10.10;3.60;;;18.20;99.90;;;;;;14559639;23;20104;-70
2021/10/02 11:10:51;;;;;;;18.95;7.97;;;18.30;99.90;;;;;;14574614;23;20060;-70
2021/10/02 11:16:43;;;;;;;9.95;3.22;;;18.20;99.90;;;;;;14433720;23;20034;-70
2021/10/02 11:23:13;;;;;;;10.55;3.33;;;18.30;99.90;;;;;;14581112;23;20392;-69
2021/10/02 11:41:42;;;;;;;10.45;2.10;;;18.30;99.90;;;;;;14412359;23;20026;-69
2021/10/02 11:47:36;;;;;;;8.88;1.73;;;18.40;99.90;;;;;;14407241;23;20027;-69
2021/10/02 11:53:25;;;;;;;6.03;1.77;;;18.40;99.90;;;;;;14338270;23;20062;-69
2021/10/02 11:59:23;;;;;;;5.50;1.90;;;18.40;99.90;;;;;;14412252;23;20065;-68
2021/10/02 12:05:13;;;;;;;6.80;2.17;;;18.20;99.90;;;;;;14451468;23;20026;-68
2021/10/02 12:11:04;;;;;;;9.85;2.00;;;18.00;99.90;;;;;;14618654;23;20029;-68
2021/10/02 12:16:54;;;;;;;8.60;2.22;;;17.80;99.90;;;;;;14557785;23;20028;-68
2021/10/02 12:22:43;;;;;;;4.47;2.00;;;17.80;99.90;;;;;;14575626;23;20102;-68
2021/10/02 12:28:42;;;;;;;8.50;2.28;;;17.80;99.90;;;;;;14576778;23;20483;-69
2021/10/02 12:34:33;;;;;;;6.15;2.58;;;17.80;99.90;;;;;;14610818;23;20039;-69
2021/10/02 12:40:25;;;;;;;5.90;2.10;;;18.00;99.90;;;;;;14594315;23;20031;-69
2021/10/02 12:46:18;;;;;;;3.33;1.90;;;18.10;99.90;;;;;;14613286;23;20021;-69
2021/10/02 12:52:05;;;;;;;6.05;2.00;;;18.10;99.90;;;;;;14607751;23;20056;-69
2021/10/02 12:58:01;;;;;;;7.35;2.50;;;18.00;99.90;;;;;;14597401;23;20096;-69
2021/10/02 13:03:49;;;;;;;11.20;2.38;;;18.00;99.90;;;;;;14623722;23;20033;-69
2021/10/02 13:16:24;;;;;;;8.57;2.30;;;17.70;99.90;;;;;;14640780;22;20021;-69
2021/10/02 13:22:16;;;;;;;8.40;2.50;;;17.70;99.90;;;;;;14641122;22;20033;-70
2021/10/02 13:28:03;;;;;;;7.00;2.42;;;18.00;99.90;;;;;;14613354;22;20033;-70
2021/10/02 13:33:54;;;;;;;8.07;3.38;;;18.00;99.90;;;;;;14621041;23;20468;-70
2021/10/02 13:39:43;;;;;;;5.35;2.70;;;17.90;99.90;;;;;;14624296;22;20021;-70
2021/10/02 13:45:33;;;;;;;8.18;3.10;;;17.90;99.90;;;;;;14631353;22;20538;-70
2021/10/02 13:51:24;;;;;;;7.97;2.97;;;17.90;99.90;;;;;;14640702;22;20056;-70
2021/10/02 13:57:11;;;;;;;9.88;2.95;;;17.90;99.90;;;;;;14641428;22;20045;-70
2021/10/02 14:02:58;;;;;;;8.88;2.97;;;17.60;99.90;;;;;;14630268;23;20080;-70
2021/10/02 14:08:47;;;;;;;10.40;3.53;;;17.60;99.90;;;;;;14632349;22;20072;-70
2021/10/02 14:14:34;;;;;;;7.88;3.30;;;17.60;99.90;;;;;;14647078;23;20097;-70
2021/10/02 14:20:20;;;;;;;6.60;3.40;;;17.70;99.90;;;;;;14644679;23;20021;-70
2021/10/02 14:26:09;;;;;;;10.73;3.72;;;17.80;99.90;;;;;;14588424;22;20025;-69
2021/10/02 14:32:08;;;;;;;7.22;3.00;;;17.80;99.90;;;;;;14615951;22;20032;-69
2021/10/02 14:37:55;;;;;;;12.60;3.28;;;17.80;99.90;;;;;;14633205;23;20032;-69
2021/10/02 14:43:44;;;;;;;6.00;2.88;;;17.90;99.90;;;;;;14642672;22;20076;-69
2021/10/02 14:49:31;;;;;;;6.75;2.90;;;17.80;99.90;;;;;;14627142;22;20028;-69
2021/10/02 14:55:18;;;;;;;12.02;3.50;;;17.80;99.90;;;;;;14627348;22;20459;-69
2021/10/02 15:01:16;;;;;;;7.85;3.40;;;17.80;99.90;;;;;;14612972;22;20021;-69
2021/10/02 15:07:04;;;;;;;8.43;3.58;;;17.70;99.90;;;;;;14643487;22;20111;-69
